Terminal Aerodrome Forecast
Issued by NWS Mt. Holly, NJ

Home | Current Version | Previous Version | Text Only | Print | Product List | Glossary On
Versions: 1 2 3 4 5 6 7 8 9 10 11 12 13 14 15 16 17 18 19 20 21 22 23 24
447
FTUS41 KPHI 181531 AAC
TAFACY
TAF AMD
KACY 181531Z 1816/1912 34008KT 6SM BR OVC004
     FM181700 34009KT P6SM BKN008 OVC015
     FM181800 33010KT P6SM BKN015
     FM182000 32011G19KT P6SM BKN020
     FM182200 33008KT P6SM BKN030
     FM190600 32004KT P6SM SCT040=

USA.gov is the U.S. government's official web portal to all federal, state and local government web resources and services.